There are multiple Weather-warnings   Click here for more information


Meteo18 Weather Cam more information Meteo18 Weather Cam


Thunder radar more information blitzortung!


warning for Snow/Ice more information rain snow radar


Visit our other weather sites:

Template documentation
and downloads

And another site



Weather Underground History page Text

Daily Summary for October 14, 2017 Units:  English    Metric   Both
« Previous Day
Next Day »
Daily Weekly Monthly Yearly Custom
  High: Low: Average:
Temperature: TemperatureC °F 9.8 °F 13.1 °F
Dew Point: DewpointC °F 9.3 °F 11.4 °F
Humidity: Humidity % 63 % 89 %
Wind Speed: WindSpeedKMH mph 0.0 mph 0.5 mph
Wind Gust: WindSpeedGustKMH mph - -
Wind:- - SE
Pressure: PressurehPa in 1026.6 in -
Precipitation: 0.3 in    
Historical Graphs
 
 
Tabular Data for October 14, 2017
Time Temperature Dew Point Pressure Wind Wind Speed Wind Gust Humidity Rainfall Rate (Hourly)
TemperatureC °F DewpointC °F PressurehPa in Calm     Humidity % HourlyPrecipMM in
00:02 12.5 °F 11.6 °F 1027.3 in Calm   3.2 mph 94 % 0.0 in
00:12 12.5 °F 11.6 °F 1027.3 in Calm   1.6 mph 94 % 0.0 in
00:17 12.6 °F 11.8 °F 1027.3 in Calm   1.6 mph 95 % 0.0 in
00:22 12.7 °F 11.9 °F 1027.3 in Calm   1.6 mph 95 % 0.0 in
00:32 12.4 °F 11.5 °F 1027.3 in Calm     94 % 0.0 in
00:42 12.3 °F 11.4 °F 1027.3 in Calm     94 % 0.0 in
00:47 12.2 °F 11.3 °F 1027.3 in WNW 1.6 mph 1.6 mph 94 % 0.0 in
00:52 12.1 °F 11.3 °F 1027.3 in Calm   1.6 mph 95 % 0.0 in
00:57 12.2 °F 11.4 °F 1027.3 in Calm   1.6 mph 95 % 0.0 in
01:02 12.1 °F 11.3 °F 1027.3 in Calm   1.6 mph 95 % 0.0 in
01:07 12.1 °F 11.3 °F 1027.3 in Calm   1.6 mph 95 % 0.0 in
01:12 12.0 °F 11.2 °F 1027.3 in Calm   1.6 mph 95 % 0.0 in
01:22 11.9 °F 11.1 °F 1027.3 in Calm   1.6 mph 95 % 0.0 in
01:32 12.0 °F 11.4 °F 1027.3 in Calm   1.6 mph 96 % 0.0 in
01:37 12.1 °F 11.5 °F 1027.3 in Calm   1.6 mph 96 % 0.0 in
01:42 11.8 °F 11.0 °F 1027.7 in Calm     95 % 0.0 in
01:47 11.8 °F 11.0 °F 1027.3 in Calm     95 % 0.0 in
01:52 11.8 °F 11.0 °F 1027.7 in Calm     95 % 0.0 in
01:57 11.7 °F 10.9 °F 1027.3 in Calm     95 % 0.0 in
02:02 11.6 °F 10.8 °F 1027.3 in Calm     95 % 0.0 in
02:07 11.6 °F 10.8 °F 1027.3 in Calm     95 % 0.0 in
02:12 11.4 °F 10.6 °F 1027.3 in Calm     95 % 0.0 in
02:17 11.4 °F 10.8 °F 1027.3 in Calm     96 % 0.0 in
02:22 11.6 °F 11.0 °F 1027.3 in Calm     96 % 0.0 in
02:32 11.4 °F 10.6 °F 1027.3 in Calm     95 % 0.0 in
02:37 11.3 °F 10.7 °F 1027.7 in Calm     96 % 0.0 in
02:42 11.5 °F 10.9 °F 1027.7 in Calm     96 % 0.0 in
02:47 11.5 °F 10.9 °F 1027.3 in Calm     96 % 0.0 in
02:52 11.3 °F 10.5 °F 1027.3 in Calm     95 % 0.0 in
02:57 11.2 °F 10.6 °F 1027.7 in Calm     96 % 0.0 in
03:02 11.2 °F 10.6 °F 1027.7 in Calm     96 % 0.0 in
03:12 11.3 °F 10.7 °F 1027.3 in Calm     96 % 0.0 in
03:17 11.1 °F 10.5 °F 1027.3 in Calm     96 % 0.0 in
03:22 11.0 °F 10.4 °F 1027.3 in Calm     96 % 0.0 in
03:27 11.2 °F 10.7 °F 1027.3 in Calm     97 % 0.0 in
03:32 11.3 °F 10.8 °F 1027.3 in Calm   1.6 mph 97 % 0.0 in
03:37 11.3 °F 10.7 °F 1027.3 in Calm   1.6 mph 96 % 0.0 in
03:42 11.3 °F 10.7 °F 1027.3 in Calm   1.6 mph 96 % 0.0 in
03:52 11.1 °F 10.5 °F 1027.0 in Calm     96 % 0.0 in
03:57 10.9 °F 10.3 °F 1027.0 in Calm     96 % 0.0 in
04:02 11.2 °F 10.7 °F 1027.0 in Calm     97 % 0.0 in
04:07 11.2 °F 10.6 °F 1027.0 in Calm     96 % 0.0 in
04:12 11.2 °F 10.6 °F 1027.0 in Calm     96 % 0.0 in
04:17 11.0 °F 10.4 °F 1027.0 in Calm     96 % 0.0 in
04:22 10.9 °F 10.3 °F 1027.0 in Calm     96 % 0.0 in
04:32 10.7 °F 10.1 °F 1027.0 in Calm     96 % 0.0 in
04:42 10.8 °F 10.2 °F 1027.0 in Calm     96 % 0.0 in
04:47 10.8 °F 10.2 °F 1027.0 in Calm     96 % 0.0 in
04:52 10.7 °F 10.1 °F 1027.0 in Calm     96 % 0.0 in
04:57 10.6 °F 10.0 °F 1027.0 in Calm     96 % 0.0 in
05:02 10.6 °F 10.0 °F 1027.0 in Calm     96 % 0.0 in
05:12 10.3 °F 9.7 °F 1027.0 in Calm     96 % 0.0 in
05:22 10.0 °F 9.4 °F 1027.0 in Calm     96 % 0.0 in
05:42 10.2 °F 9.6 °F 1027.0 in Calm     96 % 0.0 in
05:47 10.2 °F 9.6 °F 1027.0 in Calm     96 % 0.0 in
05:52 10.1 °F 9.5 °F 1026.6 in Calm     96 % 0.0 in
05:57 10.2 °F 9.7 °F 1026.6 in Calm     97 % 0.0 in
06:02 9.9 °F 9.3 °F 1026.6 in Calm     96 % 0.0 in
06:12 9.8 °F 9.3 °F 1027.0 in Calm     97 % 0.0 in
06:17 9.8 °F 9.3 °F 1027.0 in Calm     97 % 0.0 in
06:22 10.0 °F 9.5 °F 1027.0 in Calm     97 % 0.0 in
06:32 10.2 °F 9.7 °F 1027.0 in Calm     97 % 0.0 in
06:42 10.1 °F 9.6 °F 1027.0 in Calm     97 % 0.0 in
06:47 10.1 °F 9.6 °F 1027.0 in Calm     97 % 0.0 in
06:52 10.2 °F 9.7 °F 1027.0 in Calm     97 % 0.0 in
07:02 10.2 °F 9.7 °F 1027.0 in Calm     97 % 0.0 in
07:07 10.2 °F 9.7 °F 1027.0 in Calm     97 % 0.0 in
07:12 10.2 °F 9.7 °F 1027.0 in Calm     97 % 0.0 in
07:17 10.1 °F 9.6 °F 1027.0 in Calm     97 % 0.3 in
07:27 10.4 °F 9.9 °F 1027.0 in Calm     97 % 0.3 in
07:32 10.8 °F 10.3 °F 1027.0 in Calm     97 % 0.3 in
07:42 10.6 °F 10.1 °F 1027.0 in Calm     97 % 0.3 in
07:47 10.6 °F 10.1 °F 1027.0 in Calm     97 % 0.3 in
07:52 10.4 °F 9.9 °F 1027.0 in Calm     97 % 0.3 in
08:02 10.8 °F 10.3 °F 1027.0 in Calm     97 % 0.3 in
08:12 10.5 °F 10.0 °F 1027.0 in Calm     97 % 0.3 in
08:17 10.5 °F 10.0 °F 1027.3 in Calm     97 % 0.0 in
08:22 10.7 °F 10.2 °F 1027.3 in Calm     97 % 0.0 in
08:27 10.7 °F 10.2 °F 1027.3 in Calm     97 % 0.0 in
08:32 10.7 °F 10.2 °F 1027.3 in Calm     97 % 0.0 in
08:42 11.0 °F 10.5 °F 1027.3 in Calm     97 % 0.0 in
08:47 10.8 °F 10.3 °F 1027.3 in Calm     97 % 0.0 in
08:52 10.7 °F 10.2 °F 1027.3 in Calm     97 % 0.0 in
08:57 10.8 °F 10.3 °F 1027.3 in Calm     97 % 0.0 in
09:02 10.9 °F 10.4 °F 1027.7 in Calm     97 % 0.0 in
09:12 11.5 °F 11.0 °F 1027.7 in Calm     97 % 0.0 in
09:17 11.8 °F 11.3 °F 1027.7 in Calm     97 % 0.0 in
09:22 12.0 °F 11.5 °F 1027.7 in Calm     97 % 0.0 in
09:32 12.7 °F 12.2 °F 1027.7 in Calm     97 % 0.0 in
09:37 12.8 °F 12.2 °F 1027.7 in Calm     96 % 0.0 in
09:42 12.8 °F 12.2 °F 1027.7 in Calm     96 % 0.0 in
09:47 13.0 °F 12.4 °F 1027.7 in Calm     96 % 0.0 in
09:52 13.4 °F 12.8 °F 1027.7 in Calm     96 % 0.0 in
10:02 13.8 °F 13.0 °F 1027.7 in Calm     95 % 0.0 in
10:07 14.0 °F 12.9 °F 1027.7 in Calm     93 % 0.0 in
10:12 14.2 °F 12.9 °F 1027.7 in Calm     92 % 0.0 in
10:17 14.3 °F 12.9 °F 1027.7 in Calm   3.2 mph 91 % 0.0 in
10:22 14.8 °F 13.0 °F 1027.7 in Calm   3.2 mph 89 % 0.0 in
10:27 14.9 °F 12.8 °F 1027.7 in Calm   3.2 mph 87 % 0.0 in
10:32 15.0 °F 12.7 °F 1027.7 in Calm   3.2 mph 86 % 0.0 in
10:37 15.2 °F 12.5 °F 1027.7 in Calm   6.4 mph 84 % 0.0 in
10:42 15.4 °F 12.7 °F 1027.7 in South 1.6 mph 6.4 mph 84 % 0.0 in
10:52 15.8 °F 12.5 °F 1028.0 in South 1.6 mph 6.4 mph 81 % 0.0 in
10:57 15.8 °F 12.4 °F 1028.0 in SW 1.6 mph 6.4 mph 80 % 0.0 in
11:02 15.9 °F 12.6 °F 1027.7 in SE 1.6 mph 6.4 mph 81 % 0.0 in
11:12 16.2 °F 12.6 °F 1027.7 in Calm   6.4 mph 79 % 0.0 in
11:17 16.1 °F 12.5 °F 1028.0 in Calm   3.2 mph 79 % 0.0 in
11:22 16.2 °F 12.7 °F 1027.7 in SSE 3.2 mph 3.2 mph 80 % 0.0 in
11:32 16.6 °F 12.9 °F 1027.7 in Calm   8.0 mph 79 % 0.0 in
11:37 16.8 °F 12.7 °F 1027.7 in SW 4.8 mph 8.0 mph 77 % 0.0 in
11:47 16.9 °F 12.8 °F 1027.7 in SW 1.6 mph 6.4 mph 77 % 0.0 in
11:57 17.2 °F 13.1 °F 1027.7 in South 1.6 mph 6.4 mph 77 % 0.0 in
12:02 17.6 °F 13.5 °F 1027.7 in Calm   6.4 mph 77 % 0.0 in
12:12 17.4 °F 12.9 °F 1027.7 in NE 3.2 mph 4.8 mph 75 % 0.0 in
12:17 17.6 °F 13.5 °F 1027.7 in Calm   6.4 mph 77 % 0.0 in
12:22 17.8 °F 13.5 °F 1027.7 in Calm   6.4 mph 76 % 0.0 in
12:32 18.5 °F 13.8 °F 1027.3 in Calm   4.8 mph 74 % 0.0 in
12:37 18.8 °F 14.1 °F 1027.7 in SE 4.8 mph 4.8 mph 74 % 0.0 in
12:42 19.1 °F 13.7 °F 1027.7 in Calm   3.2 mph 71 % 0.0 in
12:47 19.2 °F 13.8 °F 1027.7 in NE 1.6 mph 3.2 mph 71 % 0.0 in
12:52 19.1 °F 13.9 °F 1027.3 in Calm   4.8 mph 72 % 0.0 in
12:57 19.0 °F 13.8 °F 1027.7 in ENE 1.6 mph 4.8 mph 72 % 0.0 in
13:02 19.1 °F 14.1 °F 1027.3 in Calm   6.4 mph 73 % 0.0 in
13:12 19.9 °F 14.3 °F 1027.3 in ESE 1.6 mph 6.4 mph 70 % 0.0 in
13:17 19.8 °F 13.9 °F 1027.3 in Calm   6.4 mph 69 % 0.0 in
13:22 20.0 °F 14.4 °F 1027.3 in East 3.2 mph 6.4 mph 70 % 0.0 in
13:32 20.4 °F 14.5 °F 1027.0 in South 1.6 mph 8.0 mph 69 % 0.0 in
13:42 20.8 °F 14.2 °F 1027.0 in Calm   6.4 mph 66 % 0.0 in
13:52 20.8 °F 14.2 °F 1027.0 in ENE 4.8 mph 8.0 mph 66 % 0.0 in
13:57 20.9 °F 14.3 °F 1026.6 in South 1.6 mph 8.0 mph 66 % 0.0 in
14:02 21.2 °F 14.4 °F 1026.6 in SE 3.2 mph 8.0 mph 65 % 0.0 in
14:12 21.6 °F 14.3 °F 1026.6 in East 6.4 mph 8.0 mph 63 % 0.0 in
14:17 21.6 °F 14.5 °F 1026.6 in East 3.2 mph 8.0 mph 64 % 0.0 in
14:22 21.6 °F 14.7 °F 1026.6 in ENE 4.8 mph 8.0 mph 65 % 0.0 in
Meteo18
Compliments of Weather Underground - 4 mb

Script developed by  Jim McMurry - jmcmurry@mwt.net Adapted for the template by  Wim van der Kuil - Leuven-Template.eu

You find our weather info also at:

European Weather Network

Weather Underground

Equipment we use:

Weather-station
Davis Vue

Weather-program
Meteobridge

Weather-server
Raspberry PI 2 B+

Provider
1 and 1

Davis Vue

Meteobridge

Raspberry PI 2 B+

1 and 1